sensor_id;sensor_type;location;lat;lon;timestamp;pressure;altitude;pressure_sealevel;temperature;humidity
7962;BME280;4026;43.652;24.906;2023-05-01T00:02:00;99076.75;;;11.19;100.00
7962;BME280;4026;43.652;24.906;2023-05-01T00:04:27;99079.19;;;11.09;100.00
7962;BME280;4026;43.652;24.906;2023-05-01T00:06:54;99078.16;;;11.12;100.00
7962;BME280;4026;43.652;24.906;2023-05-01T00:09:22;99076.41;;;11.01;100.00
7962;BME280;4026;43.652;24.906;2023-05-01T00:11:48;99069.03;;;10.96;100.00
7962;BME280;4026;43.652;24.906;2023-05-01T00:14:15;99074.06;;;10.98;100.00
7962;BME280;4026;43.652;24.906;2023-05-01T00:16:44;99066.97;;;11.01;100.00
7962;BME280;4026;43.652;24.906;2023-05-01T00:19:12;99062.78;;;11.00;100.00
7962;BME280;4026;43.652;24.906;2023-05-01T00:21:42;99060.22;;;11.00;100.00
7962;BME280;4026;43.652;24.906;2023-05-01T00:24:10;99056.75;;;11.01;100.00
7962;BME280;4026;43.652;24.906;2023-05-01T00:26:36;99060.91;;;10.91;100.00
7962;BME280;4026;43.652;24.906;2023-05-01T00:29:03;99057.88;;;10.86;100.00
7962;BME280;4026;43.652;24.906;2023-05-01T00:31:30;99058.81;;;10.85;100.00
7962;BME280;4026;43.652;24.906;2023-05-01T00:33:58;99070.91;;;10.83;100.00
7962;BME280;4026;43.652;24.906;2023-05-01T00:36:25;99066.09;;;10.78;100.00
7962;BME280;4026;43.652;24.906;2023-05-01T00:38:52;99076.72;;;10.85;100.00
7962;BME280;4026;43.652;24.906;2023-05-01T00:41:19;99076.25;;;10.80;100.00
7962;BME280;4026;43.652;24.906;2023-05-01T00:43:46;99073.50;;;10.35;100.00
7962;BME280;4026;43.652;24.906;2023-05-01T00:46:12;99073.56;;;10.22;100.00
7962;BME280;4026;43.652;24.906;2023-05-01T00:48:39;99073.94;;;10.29;100.00
7962;BME280;4026;43.652;24.906;2023-05-01T00:51:08;99075.84;;;10.38;100.00
7962;BME280;4026;43.652;24.906;2023-05-01T00:53:35;99084.50;;;10.48;100.00
7962;BME280;4026;43.652;24.906;2023-05-01T00:56:02;99078.50;;;10.60;100.00
7962;BME280;4026;43.652;24.906;2023-05-01T00:58:29;99077.69;;;10.60;100.00
7962;BME280;4026;43.652;24.906;2023-05-01T01:00:57;99083.84;;;10.57;100.00
7962;BME280;4026;43.652;24.906;2023-05-01T01:03:23;99082.03;;;10.82;100.00
7962;BME280;4026;43.652;24.906;2023-05-01T01:05:55;99091.63;;;10.91;100.00
7962;BME280;4026;43.652;24.906;2023-05-01T01:08:28;99090.66;;;10.81;100.00
7962;BME280;4026;43.652;24.906;2023-05-01T01:11:03;99095.97;;;10.78;100.00
7962;BME280;4026;43.652;24.906;2023-05-01T01:13:39;99101.00;;;10.79;100.00
7962;BME280;4026;43.652;24.906;2023-05-01T01:16:13;99100.97;;;10.68;100.00
7962;BME280;4026;43.652;24.906;2023-05-01T01:18:48;99102.72;;;10.79;100.00
7962;BME280;4026;43.652;24.906;2023-05-01T01:21:20;99105.09;;;10.93;100.00
7962;BME280;4026;43.652;24.906;2023-05-01T01:24:11;99103.47;;;10.92;100.00
7962;BME280;4026;43.652;24.906;2023-05-01T01:26:57;99109.53;;;10.91;100.00
7962;BME280;4026;43.652;24.906;2023-05-01T01:29:39;99104.63;;;10.88;100.00
7962;BME280;4026;43.652;24.906;2023-05-01T01:32:24;99104.50;;;10.90;100.00
7962;BME280;4026;43.652;24.906;2023-05-01T01:35:02;99109.59;;;10.78;100.00
7962;BME280;4026;43.652;24.906;2023-05-01T01:37:38;99099.31;;;10.67;100.00
7962;BME280;4026;43.652;24.906;2023-05-01T01:40:11;99096.94;;;10.77;100.00
7962;BME280;4026;43.652;24.906;2023-05-01T01:42:43;99093.38;;;10.67;100.00
7962;BME280;4026;43.652;24.906;2023-05-01T01:45:16;99104.44;;;10.67;100.00
7962;BME280;4026;43.652;24.906;2023-05-01T01:47:45;99105.03;;;10.71;100.00
7962;BME280;4026;43.652;24.906;2023-05-01T01:50:16;99116.00;;;10.84;100.00
7962;BME280;4026;43.652;24.906;2023-05-01T01:52:46;99116.97;;;10.94;100.00
7962;BME280;4026;43.652;24.906;2023-05-01T01:55:16;99131.59;;;10.92;100.00
7962;BME280;4026;43.652;24.906;2023-05-01T01:57:47;99149.50;;;10.92;100.00
7962;BME280;4026;43.652;24.906;2023-05-01T02:00:16;99163.75;;;10.48;100.00
7962;BME280;4026;43.652;24.906;2023-05-01T02:02:45;99153.47;;;10.37;100.00
7962;BME280;4026;43.652;24.906;2023-05-01T02:05:16;99151.84;;;10.36;100.00
7962;BME280;4026;43.652;24.906;2023-05-01T02:07:47;99156.78;;;10.50;100.00
7962;BME280;4026;43.652;24.906;2023-05-01T02:10:15;99159.56;;;10.47;100.00
7962;BME280;4026;43.652;24.906;2023-05-01T02:12:43;99163.19;;;10.56;100.00
7962;BME280;4026;43.652;24.906;2023-05-01T02:15:12;99165.56;;;10.59;100.00
7962;BME280;4026;43.652;24.906;2023-05-01T02:17:39;99155.50;;;10.32;100.00
7962;BME280;4026;43.652;24.906;2023-05-01T02:20:08;99164.31;;;10.28;100.00
7962;BME280;4026;43.652;24.906;2023-05-01T02:22:39;99167.16;;;10.36;100.00
7962;BME280;4026;43.652;24.906;2023-05-01T02:25:07;99166.00;;;10.40;100.00
7962;BME280;4026;43.652;24.906;2023-05-01T02:27:38;99171.19;;;10.51;100.00
7962;BME280;4026;43.652;24.906;2023-05-01T02:30:07;99167.16;;;10.36;100.00
7962;BME280;4026;43.652;24.906;2023-05-01T02:32:34;99167.47;;;10.55;100.00
7962;BME280;4026;43.652;24.906;2023-05-01T02:35:01;99164.69;;;10.47;100.00
7962;BME280;4026;43.652;24.906;2023-05-01T02:37:28;99169.94;;;10.33;100.00
7962;BME280;4026;43.652;24.906;2023-05-01T02:39:57;99171.41;;;10.48;100.00
7962;BME280;4026;43.652;24.906;2023-05-01T02:42:25;99173.03;;;10.49;100.00
7962;BME280;4026;43.652;24.906;2023-05-01T02:44:56;99167.31;;;10.46;100.00
7962;BME280;4026;43.652;24.906;2023-05-01T02:47:23;99175.50;;;10.51;100.00
7962;BME280;4026;43.652;24.906;2023-05-01T02:49:53;99173.16;;;10.48;100.00
7962;BME280;4026;43.652;24.906;2023-05-01T02:52:20;99171.03;;;10.65;100.00
7962;BME280;4026;43.652;24.906;2023-05-01T02:54:48;99183.59;;;10.69;100.00
7962;BME280;4026;43.652;24.906;2023-05-01T02:57:17;99190.25;;;10.71;100.00
7962;BME280;4026;43.652;24.906;2023-05-01T02:59:44;99187.41;;;10.63;100.00
7962;BME280;4026;43.652;24.906;2023-05-01T03:02:11;99195.00;;;10.76;100.00
7962;BME280;4026;43.652;24.906;2023-05-01T03:04:38;99192.94;;;10.81;100.00
7962;BME280;4026;43.652;24.906;2023-05-01T03:07:05;99195.50;;;10.81;100.00
7962;BME280;4026;43.652;24.906;2023-05-01T03:09:32;99194.38;;;10.85;100.00
7962;BME280;4026;43.652;24.906;2023-05-01T03:12:06;99199.69;;;10.82;100.00
7962;BME280;4026;43.652;24.906;2023-05-01T03:14:34;99201.22;;;10.84;100.00
7962;BME280;4026;43.652;24.906;2023-05-01T03:17:01;99195.78;;;10.89;100.00
7962;BME280;4026;43.652;24.906;2023-05-01T03:19:28;99198.66;;;10.84;100.00
7962;BME280;4026;43.652;24.906;2023-05-01T03:21:55;99206.88;;;10.77;100.00
7962;BME280;4026;43.652;24.906;2023-05-01T03:24:23;99209.53;;;10.75;100.00
7962;BME280;4026;43.652;24.906;2023-05-01T03:26:49;99209.03;;;10.70;100.00
7962;BME280;4026;43.652;24.906;2023-05-01T03:29:16;99212.91;;;10.76;100.00
7962;BME280;4026;43.652;24.906;2023-05-01T03:31:44;99216.25;;;10.89;100.00
7962;BME280;4026;43.652;24.906;2023-05-01T03:34:11;99220.09;;;10.95;100.00
7962;BME280;4026;43.652;24.906;2023-05-01T03:36:38;99225.31;;;10.93;100.00
7962;BME280;4026;43.652;24.906;2023-05-01T03:39:05;99226.13;;;10.94;100.00
7962;BME280;4026;43.652;24.906;2023-05-01T03:41:32;99223.97;;;11.00;100.00
7962;BME280;4026;43.652;24.906;2023-05-01T03:43:59;99222.72;;;11.06;100.00
7962;BME280;4026;43.652;24.906;2023-05-01T03:46:26;99225.16;;;11.07;100.00
7962;BME280;4026;43.652;24.906;2023-05-01T03:48:54;99220.41;;;11.14;100.00
7962;BME280;4026;43.652;24.906;2023-05-01T03:51:21;99221.16;;;11.27;100.00
7962;BME280;4026;43.652;24.906;2023-05-01T03:53:48;99228.84;;;11.39;100.00
7962;BME280;4026;43.652;24.906;2023-05-01T03:56:15;99231.75;;;11.34;100.00
7962;BME280;4026;43.652;24.906;2023-05-01T03:58:42;99233.16;;;11.38;100.00
7962;BME280;4026;43.652;24.906;2023-05-01T04:01:09;99238.38;;;11.37;100.00
7962;BME280;4026;43.652;24.906;2023-05-01T04:03:36;99236.63;;;11.37;100.00
7962;BME280;4026;43.652;24.906;2023-05-01T04:06:04;99248.78;;;11.46;100.00
7962;BME280;4026;43.652;24.906;2023-05-01T04:08:31;99246.66;;;11.40;100.00
7962;BME280;4026;43.652;24.906;2023-05-01T04:10:58;99250.88;;;11.41;100.00
7962;BME280;4026;43.652;24.906;2023-05-01T04:13:25;99246.22;;;11.46;100.00
7962;BME280;4026;43.652;24.906;2023-05-01T04:15:52;99252.75;;;11.50;100.00
7962;BME280;4026;43.652;24.906;2023-05-01T04:18:22;99245.91;;;11.62;100.00
7962;BME280;4026;43.652;24.906;2023-05-01T04:20:48;99250.91;;;11.75;100.00
7962;BME280;4026;43.652;24.906;2023-05-01T04:23:17;99256.00;;;11.88;100.00
7962;BME280;4026;43.652;24.906;2023-05-01T04:25:44;99259.59;;;11.96;100.00
7962;BME280;4026;43.652;24.906;2023-05-01T04:28:11;99255.88;;;12.00;100.00
7962;BME280;4026;43.652;24.906;2023-05-01T04:30:38;99267.06;;;12.11;100.00
7962;BME280;4026;43.652;24.906;2023-05-01T04:33:05;99262.75;;;12.22;100.00
7962;BME280;4026;43.652;24.906;2023-05-01T04:35:36;99275.69;;;12.43;100.00
7962;BME280;4026;43.652;24.906;2023-05-01T04:38:03;99274.50;;;12.48;100.00
7962;BME280;4026;43.652;24.906;2023-05-01T04:40:32;99265.16;;;12.69;100.00
7962;BME280;4026;43.652;24.906;2023-05-01T04:42:58;99270.09;;;12.93;100.00
7962;BME280;4026;43.652;24.906;2023-05-01T04:45:25;99272.66;;;13.04;100.00
7962;BME280;4026;43.652;24.906;2023-05-01T04:47:52;99279.38;;;13.17;100.00
7962;BME280;4026;43.652;24.906;2023-05-01T04:50:19;99281.69;;;13.20;100.00
7962;BME280;4026;43.652;24.906;2023-05-01T04:52:46;99283.38;;;13.42;100.00
7962;BME280;4026;43.652;24.906;2023-05-01T04:55:13;99290.16;;;13.64;100.00
7962;BME280;4026;43.652;24.906;2023-05-01T04:57:41;99291.09;;;13.84;100.00
7962;BME280;4026;43.652;24.906;2023-05-01T05:00:08;99279.78;;;13.96;100.00
7962;BME280;4026;43.652;24.906;2023-05-01T05:02:35;99291.31;;;14.01;100.00
7962;BME280;4026;43.652;24.906;2023-05-01T05:05:02;99294.47;;;14.05;100.00
7962;BME280;4026;43.652;24.906;2023-05-01T05:07:29;99302.94;;;14.26;100.00
7962;BME280;4026;43.652;24.906;2023-05-01T05:09:55;99294.06;;;14.40;100.00
7962;BME280;4026;43.652;24.906;2023-05-01T05:12:22;99300.00;;;14.71;100.00
7962;BME280;4026;43.652;24.906;2023-05-01T05:14:51;99315.09;;;15.05;100.00
7962;BME280;4026;43.652;24.906;2023-05-01T05:17:17;99305.88;;;15.12;100.00
7962;BME280;4026;43.652;24.906;2023-05-01T05:19:44;99305.63;;;15.25;100.00
7962;BME280;4026;43.652;24.906;2023-05-01T05:22:11;99313.88;;;15.58;100.00
7962;BME280;4026;43.652;24.906;2023-05-01T05:24:38;99317.41;;;15.86;100.00
7962;BME280;4026;43.652;24.906;2023-05-01T05:27:05;99320.22;;;16.02;100.00
7962;BME280;4026;43.652;24.906;2023-05-01T05:29:31;99321.56;;;16.06;100.00
7962;BME280;4026;43.652;24.906;2023-05-01T05:32:00;99327.22;;;16.20;100.00
7962;BME280;4026;43.652;24.906;2023-05-01T05:34:28;99328.06;;;16.11;97.98
7962;BME280;4026;43.652;24.906;2023-05-01T05:36:55;99332.25;;;16.21;99.57
7962;BME280;4026;43.652;24.906;2023-05-01T05:39:21;99333.84;;;16.60;99.67
7962;BME280;4026;43.652;24.906;2023-05-01T05:41:49;99344.69;;;16.73;93.76
7962;BME280;4026;43.652;24.906;2023-05-01T05:44:18;99341.94;;;16.84;97.94
7962;BME280;4026;43.652;24.906;2023-05-01T05:46:45;99336.34;;;17.07;99.20
7962;BME280;4026;43.652;24.906;2023-05-01T05:49:13;99346.59;;;16.71;94.52
7962;BME280;4026;43.652;24.906;2023-05-01T05:51:40;99346.13;;;16.85;93.88
7962;BME280;4026;43.652;24.906;2023-05-01T05:54:06;99340.19;;;17.03;94.66
7962;BME280;4026;43.652;24.906;2023-05-01T05:56:34;99345.69;;;16.90;96.04
7962;BME280;4026;43.652;24.906;2023-05-01T05:59:00;99354.63;;;16.95;93.45
7962;BME280;4026;43.652;24.906;2023-05-01T06:01:29;99361.38;;;17.42;90.83
7962;BME280;4026;43.652;24.906;2023-05-01T06:03:56;99361.75;;;17.65;91.12
7962;BME280;4026;43.652;24.906;2023-05-01T06:06:25;99367.66;;;17.75;86.60
7962;BME280;4026;43.652;24.906;2023-05-01T06:08:52;99365.88;;;17.94;88.16
7962;BME280;4026;43.652;24.906;2023-05-01T06:11:18;99372.47;;;18.14;85.44
7962;BME280;4026;43.652;24.906;2023-05-01T06:13:46;99376.22;;;18.46;81.41
7962;BME280;4026;43.652;24.906;2023-05-01T06:16:13;99378.38;;;18.93;79.50
7962;BME280;4026;43.652;24.906;2023-05-01T06:18:40;99382.16;;;18.72;74.75
7962;BME280;4026;43.652;24.906;2023-05-01T06:21:07;99383.13;;;19.06;75.50
7962;BME280;4026;43.652;24.906;2023-05-01T06:23:35;99384.22;;;18.95;71.97
7962;BME280;4026;43.652;24.906;2023-05-01T06:26:02;99383.66;;;19.42;72.09
7962;BME280;4026;43.652;24.906;2023-05-01T06:28:30;99382.50;;;19.12;73.36
7962;BME280;4026;43.652;24.906;2023-05-01T06:30:57;99379.75;;;19.30;71.66
7962;BME280;4026;43.652;24.906;2023-05-01T06:33:24;99384.81;;;18.81;69.64
7962;BME280;4026;43.652;24.906;2023-05-01T06:35:50;99383.34;;;19.29;77.21
7962;BME280;4026;43.652;24.906;2023-05-01T06:38:18;99389.28;;;18.70;67.06
7962;BME280;4026;43.652;24.906;2023-05-01T06:40:47;99387.88;;;18.50;71.67
7962;BME280;4026;43.652;24.906;2023-05-01T06:43:14;99394.13;;;18.99;72.27
7962;BME280;4026;43.652;24.906;2023-05-01T06:45:41;99391.78;;;19.47;70.82
7962;BME280;4026;43.652;24.906;2023-05-01T06:48:08;99398.22;;;18.76;69.23
7962;BME280;4026;43.652;24.906;2023-05-01T06:50:34;99406.16;;;18.74;68.39
7962;BME280;4026;43.652;24.906;2023-05-01T06:53:01;99412.22;;;19.50;68.66
7962;BME280;4026;43.652;24.906;2023-05-01T06:55:28;99402.16;;;20.29;69.66
7962;BME280;4026;43.652;24.906;2023-05-01T06:57:57;99412.44;;;20.78;67.15
7962;BME280;4026;43.652;24.906;2023-05-01T07:00:24;99411.28;;;20.80;61.46
7962;BME280;4026;43.652;24.906;2023-05-01T07:02:51;99414.88;;;21.11;63.62
7962;BME280;4026;43.652;24.906;2023-05-01T07:05:17;99413.25;;;21.64;61.67
7962;BME280;4026;43.652;24.906;2023-05-01T07:07:44;99425.38;;;21.95;61.53
7962;BME280;4026;43.652;24.906;2023-05-01T07:10:11;99426.19;;;22.18;57.58
7962;BME280;4026;43.652;24.906;2023-05-01T07:12:38;99430.16;;;22.44;56.57
7962;BME280;4026;43.652;24.906;2023-05-01T07:15:07;99433.41;;;22.08;55.15
7962;BME280;4026;43.652;24.906;2023-05-01T07:17:34;99438.50;;;22.39;57.90
7962;BME280;4026;43.652;24.906;2023-05-01T07:20:01;99442.75;;;22.85;57.45
7962;BME280;4026;43.652;24.906;2023-05-01T07:22:29;99441.75;;;22.86;58.19
7962;BME280;4026;43.652;24.906;2023-05-01T07:24:56;99454.72;;;21.88;54.95
7962;BME280;4026;43.652;24.906;2023-05-01T07:27:25;99452.53;;;21.54;59.04
7962;BME280;4026;43.652;24.906;2023-05-01T07:29:54;99458.38;;;21.79;56.58
7962;BME280;4026;43.652;24.906;2023-05-01T07:32:22;99458.97;;;22.04;57.30
7962;BME280;4026;43.652;24.906;2023-05-01T07:34:49;99461.94;;;22.24;56.43
7962;BME280;4026;43.652;24.906;2023-05-01T07:37:16;99462.13;;;22.00;60.08
7962;BME280;4026;43.652;24.906;2023-05-01T07:39:43;99472.63;;;22.29;57.38
7962;BME280;4026;43.652;24.906;2023-05-01T07:42:10;99467.63;;;22.43;55.36
7962;BME280;4026;43.652;24.906;2023-05-01T07:44:36;99468.59;;;22.42;53.16
7962;BME280;4026;43.652;24.906;2023-05-01T07:47:04;99475.28;;;22.89;55.79
7962;BME280;4026;43.652;24.906;2023-05-01T07:49:35;99476.16;;;23.25;55.82
7962;BME280;4026;43.652;24.906;2023-05-01T07:52:03;99475.69;;;23.58;53.53
7962;BME280;4026;43.652;24.906;2023-05-01T07:54:31;99485.41;;;23.64;53.54
7962;BME280;4026;43.652;24.906;2023-05-01T07:56:58;99479.53;;;23.04;53.21
7962;BME280;4026;43.652;24.906;2023-05-01T07:59:26;99495.25;;;23.11;53.89
7962;BME280;4026;43.652;24.906;2023-05-01T08:01:53;99495.84;;;22.54;52.88
7962;BME280;4026;43.652;24.906;2023-05-01T08:04:20;99503.53;;;21.86;53.77
7962;BME280;4026;43.652;24.906;2023-05-01T08:06:48;99494.69;;;21.96;56.21
7962;BME280;4026;43.652;24.906;2023-05-01T08:09:15;99500.28;;;22.30;57.87
7962;BME280;4026;43.652;24.906;2023-05-01T08:11:42;99500.28;;;22.98;56.35
7962;BME280;4026;43.652;24.906;2023-05-01T08:14:09;99495.97;;;23.05;56.12
7962;BME280;4026;43.652;24.906;2023-05-01T08:16:36;99499.59;;;23.40;57.41
7962;BME280;4026;43.652;24.906;2023-05-01T08:19:02;99503.84;;;23.26;56.72
7962;BME280;4026;43.652;24.906;2023-05-01T08:21:29;99505.94;;;23.31;55.67
7962;BME280;4026;43.652;24.906;2023-05-01T08:23:58;99501.88;;;23.28;58.51
7962;BME280;4026;43.652;24.906;2023-05-01T08:26:25;99505.16;;;23.01;56.14
7962;BME280;4026;43.652;24.906;2023-05-01T08:28:51;99501.44;;;22.66;58.72
7962;BME280;4026;43.652;24.906;2023-05-01T08:31:18;99509.84;;;22.15;58.10
7962;BME280;4026;43.652;24.906;2023-05-01T08:33:45;99504.22;;;22.64;60.26
7962;BME280;4026;43.652;24.906;2023-05-01T08:36:12;99514.00;;;22.62;58.92
7962;BME280;4026;43.652;24.906;2023-05-01T08:38:39;99509.44;;;22.64;61.10
7962;BME280;4026;43.652;24.906;2023-05-01T08:41:07;99506.19;;;22.62;60.84
7962;BME280;4026;43.652;24.906;2023-05-01T08:43:35;99500.63;;;22.65;61.43
7962;BME280;4026;43.652;24.906;2023-05-01T08:46:04;99498.56;;;22.75;60.08
7962;BME280;4026;43.652;24.906;2023-05-01T08:48:34;99514.09;;;23.43;58.15
7962;BME280;4026;43.652;24.906;2023-05-01T08:51:03;99513.13;;;23.65;57.66
7962;BME280;4026;43.652;24.906;2023-05-01T08:53:31;99509.91;;;23.63;55.15
7962;BME280;4026;43.652;24.906;2023-05-01T08:55:59;99511.63;;;23.92;55.75
7962;BME280;4026;43.652;24.906;2023-05-01T08:58:27;99497.69;;;23.49;55.94
7962;BME280;4026;43.652;24.906;2023-05-01T09:00:55;99503.97;;;23.55;55.61
7962;BME280;4026;43.652;24.906;2023-05-01T09:03:22;99504.31;;;23.66;56.49
7962;BME280;4026;43.652;24.906;2023-05-01T09:05:51;99506.53;;;23.48;56.94
7962;BME280;4026;43.652;24.906;2023-05-01T09:08:18;99497.91;;;23.33;56.64
7962;BME280;4026;43.652;24.906;2023-05-01T09:10:47;99507.88;;;23.44;54.37
7962;BME280;4026;43.652;24.906;2023-05-01T09:13:15;99496.50;;;22.86;57.20
7962;BME280;4026;43.652;24.906;2023-05-01T09:15:43;99495.25;;;23.11;55.34
7962;BME280;4026;43.652;24.906;2023-05-01T09:18:10;99503.28;;;23.46;53.29
7962;BME280;4026;43.652;24.906;2023-05-01T09:20:37;99512.16;;;23.88;52.66
7962;BME280;4026;43.652;24.906;2023-05-01T09:23:04;99514.41;;;24.12;51.35
7962;BME280;4026;43.652;24.906;2023-05-01T09:25:33;99512.69;;;23.62;52.54
7962;BME280;4026;43.652;24.906;2023-05-01T09:28:00;99514.75;;;23.66;53.34
7962;BME280;4026;43.652;24.906;2023-05-01T09:30:31;99516.03;;;23.92;51.34
7962;BME280;4026;43.652;24.906;2023-05-01T09:33:10;99504.97;;;23.90;52.27
7962;BME280;4026;43.652;24.906;2023-05-01T09:35:51;99505.41;;;24.43;52.66
7962;BME280;4026;43.652;24.906;2023-05-01T09:38:19;99508.97;;;24.63;51.94
7962;BME280;4026;43.652;24.906;2023-05-01T09:40:46;99502.66;;;24.51;51.38
7962;BME280;4026;43.652;24.906;2023-05-01T09:43:22;99502.19;;;24.41;53.53
7962;BME280;4026;43.652;24.906;2023-05-01T09:45:58;99496.91;;;24.97;48.98
7962;BME280;4026;43.652;24.906;2023-05-01T09:48:27;99497.28;;;24.94;49.10
7962;BME280;4026;43.652;24.906;2023-05-01T09:50:54;99496.22;;;24.82;49.45
7962;BME280;4026;43.652;24.906;2023-05-01T09:53:35;99500.19;;;24.71;48.62
7962;BME280;4026;43.652;24.906;2023-05-01T09:56:03;99501.06;;;24.50;48.48
7962;BME280;4026;43.652;24.906;2023-05-01T09:58:29;99502.72;;;23.87;47.22
7962;BME280;4026;43.652;24.906;2023-05-01T10:00:56;99502.19;;;23.55;50.85
7962;BME280;4026;43.652;24.906;2023-05-01T10:03:23;99510.84;;;24.20;47.38
7962;BME280;4026;43.652;24.906;2023-05-01T10:05:52;99507.19;;;23.93;49.29
7962;BME280;4026;43.652;24.906;2023-05-01T10:08:21;99505.91;;;24.04;49.47
7962;BME280;4026;43.652;24.906;2023-05-01T10:10:59;99493.19;;;24.22;47.64
7962;BME280;4026;43.652;24.906;2023-05-01T10:13:28;99498.81;;;24.26;47.16
7962;BME280;4026;43.652;24.906;2023-05-01T10:15:56;99496.06;;;24.34;47.07
7962;BME280;4026;43.652;24.906;2023-05-01T10:18:26;99506.69;;;24.04;48.63
7962;BME280;4026;43.652;24.906;2023-05-01T10:20:56;99493.50;;;24.12;47.57
7962;BME280;4026;43.652;24.906;2023-05-01T10:23:24;99495.75;;;24.15;46.80
7962;BME280;4026;43.652;24.906;2023-05-01T10:25:52;99498.94;;;23.53;47.63
7962;BME280;4026;43.652;24.906;2023-05-01T10:28:19;99496.47;;;23.66;47.28
7962;BME280;4026;43.652;24.906;2023-05-01T10:30:47;99494.28;;;24.06;48.14
7962;BME280;4026;43.652;24.906;2023-05-01T10:33:14;99490.28;;;24.10;47.51
7962;BME280;4026;43.652;24.906;2023-05-01T10:35:45;99495.94;;;23.92;47.39
7962;BME280;4026;43.652;24.906;2023-05-01T10:38:18;99495.59;;;23.59;48.58
7962;BME280;4026;43.652;24.906;2023-05-01T10:40:48;99487.38;;;24.48;46.74
7962;BME280;4026;43.652;24.906;2023-05-01T10:43:18;99491.53;;;24.71;48.54
7962;BME280;4026;43.652;24.906;2023-05-01T10:45:46;99494.81;;;24.23;47.70
7962;BME280;4026;43.652;24.906;2023-05-01T10:51:15;99498.88;;;23.83;44.89
7962;BME280;4026;43.652;24.906;2023-05-01T10:53:47;99490.59;;;24.29;43.57
7962;BME280;4026;43.652;24.906;2023-05-01T10:56:39;99484.50;;;24.43;44.79
7962;BME280;4026;43.652;24.906;2023-05-01T10:59:07;99485.38;;;24.29;43.56
7962;BME280;4026;43.652;24.906;2023-05-01T11:01:35;99494.34;;;24.20;44.17
7962;BME280;4026;43.652;24.906;2023-05-01T11:04:04;99488.75;;;24.23;46.76
7962;BME280;4026;43.652;24.906;2023-05-01T11:06:34;99487.16;;;24.22;44.94
7962;BME280;4026;43.652;24.906;2023-05-01T11:09:34;99484.06;;;23.90;44.71
7962;BME280;4026;43.652;24.906;2023-05-01T11:12:01;99486.50;;;23.91;45.54
7962;BME280;4026;43.652;24.906;2023-05-01T11:15:00;99483.00;;;24.55;44.26
7962;BME280;4026;43.652;24.906;2023-05-01T11:17:44;99482.69;;;24.72;43.82
7962;BME280;4026;43.652;24.906;2023-05-01T11:20:12;99481.56;;;24.88;44.32
7962;BME280;4026;43.652;24.906;2023-05-01T11:22:43;99485.81;;;24.60;43.18
7962;BME280;4026;43.652;24.906;2023-05-01T11:25:19;99479.00;;;24.59;43.12
7962;BME280;4026;43.652;24.906;2023-05-01T11:27:47;99473.84;;;24.73;43.52
7962;BME280;4026;43.652;24.906;2023-05-01T11:30:14;99480.94;;;24.85;41.77
7962;BME280;4026;43.652;24.906;2023-05-01T11:32:42;99485.03;;;24.60;43.45
7962;BME280;4026;43.652;24.906;2023-05-01T11:35:16;99487.25;;;24.35;43.76
7962;BME280;4026;43.652;24.906;2023-05-01T11:37:44;99489.66;;;24.99;41.98
7962;BME280;4026;43.652;24.906;2023-05-01T11:40:23;99479.00;;;25.01;44.35
7962;BME280;4026;43.652;24.906;2023-05-01T11:42:51;99474.53;;;25.36;42.29
7962;BME280;4026;43.652;24.906;2023-05-01T11:45:25;99483.38;;;25.35;41.71
7962;BME280;4026;43.652;24.906;2023-05-01T11:47:52;99478.94;;;25.29;41.17
7962;BME280;4026;43.652;24.906;2023-05-01T11:50:19;99471.88;;;25.23;43.24
7962;BME280;4026;43.652;24.906;2023-05-01T11:52:48;99465.78;;;24.74;43.40
7962;BME280;4026;43.652;24.906;2023-05-01T11:55:17;99466.81;;;25.15;43.32
7962;BME280;4026;43.652;24.906;2023-05-01T11:57:47;99466.44;;;25.24;42.91
7962;BME280;4026;43.652;24.906;2023-05-01T12:00:15;99468.72;;;24.58;41.87
7962;BME280;4026;43.652;24.906;2023-05-01T12:02:57;99462.50;;;24.59;43.54
7962;BME280;4026;43.652;24.906;2023-05-01T12:05:24;99466.19;;;24.71;41.73
7962;BME280;4026;43.652;24.906;2023-05-01T12:08:04;99457.78;;;24.82;41.70
7962;BME280;4026;43.652;24.906;2023-05-01T12:10:32;99455.44;;;24.94;43.03
7962;BME280;4026;43.652;24.906;2023-05-01T12:13:01;99466.28;;;24.50;42.01
7962;BME280;4026;43.652;24.906;2023-05-01T12:15:28;99471.13;;;23.82;42.31
7962;BME280;4026;43.652;24.906;2023-05-01T12:17:56;99466.16;;;23.65;42.94
7962;BME280;4026;43.652;24.906;2023-05-01T12:20:33;99454.88;;;24.08;46.03
7962;BME280;4026;43.652;24.906;2023-05-01T12:23:01;99452.94;;;24.16;42.20
7962;BME280;4026;43.652;24.906;2023-05-01T12:25:29;99455.47;;;24.03;43.46
7962;BME280;4026;43.652;24.906;2023-05-01T12:27:59;99455.16;;;23.91;41.38
7962;BME280;4026;43.652;24.906;2023-05-01T12:30:27;99449.97;;;23.55;43.39
7962;BME280;4026;43.652;24.906;2023-05-01T12:32:55;99447.25;;;23.63;42.72
7962;BME280;4026;43.652;24.906;2023-05-01T12:35:28;99452.72;;;23.90;42.55
7962;BME280;4026;43.652;24.906;2023-05-01T12:37:55;99439.63;;;24.11;41.21
7962;BME280;4026;43.652;24.906;2023-05-01T12:40:23;99443.53;;;23.94;41.26
7962;BME280;4026;43.652;24.906;2023-05-01T12:42:54;99443.34;;;24.24;42.85
7962;BME280;4026;43.652;24.906;2023-05-01T12:45:22;99434.22;;;24.41;42.19
7962;BME280;4026;43.652;24.906;2023-05-01T12:47:51;99431.16;;;24.37;42.54
7962;BME280;4026;43.652;24.906;2023-05-01T12:50:18;99445.06;;;24.38;41.74
7962;BME280;4026;43.652;24.906;2023-05-01T12:52:47;99445.81;;;23.61;41.28
7962;BME280;4026;43.652;24.906;2023-05-01T12:55:14;99445.13;;;23.52;41.68
7962;BME280;4026;43.652;24.906;2023-05-01T12:57:51;99443.63;;;23.64;40.88
7962;BME280;4026;43.652;24.906;2023-05-01T13:00:19;99445.63;;;23.62;38.71
7962;BME280;4026;43.652;24.906;2023-05-01T13:02:47;99444.28;;;23.88;39.23
7962;BME280;4026;43.652;24.906;2023-05-01T13:05:15;99441.09;;;23.92;39.04
7962;BME280;4026;43.652;24.906;2023-05-01T13:07:47;99440.00;;;24.08;40.61
7962;BME280;4026;43.652;24.906;2023-05-01T13:10:28;99443.34;;;24.24;41.13
7962;BME280;4026;43.652;24.906;2023-05-01T13:12:57;99434.38;;;24.05;39.85
7962;BME280;4026;43.652;24.906;2023-05-01T13:15:24;99436.50;;;24.23;40.61
7962;BME280;4026;43.652;24.906;2023-05-01T13:17:51;99438.81;;;23.83;39.89
7962;BME280;4026;43.652;24.906;2023-05-01T13:20:26;99441.28;;;23.91;41.19